sensor_id;sensor_type;location;lat;lon;timestamp;P1;durP1;ratioP1;P2;durP2;ratioP2
6926;SDS011;3503;50.07605000;8.86719200;2024-02-16T00:01:12;8.23;;;2.90;;
6926;SDS011;3503;50.07605000;8.86719200;2024-02-16T00:16:15;10.13;;;2.70;;
6926;SDS011;3503;50.07605000;8.86719200;2024-02-16T00:31:19;9.80;;;3.47;;
6926;SDS011;3503;50.07605000;8.86719200;2024-02-16T00:46:22;4.73;;;2.53;;
6926;SDS011;3503;50.07605000;8.86719200;2024-02-16T01:01:25;6.77;;;3.67;;
6926;SDS011;3503;50.07605000;8.86719200;2024-02-16T01:16:28;2.97;;;2.07;;
6926;SDS011;3503;50.07605000;8.86719200;2024-02-16T01:31:31;6.07;;;3.67;;
6926;SDS011;3503;50.07605000;8.86719200;2024-02-16T01:46:34;9.43;;;3.50;;
6926;SDS011;3503;50.07605000;8.86719200;2024-02-16T02:01:37;6.30;;;3.13;;
6926;SDS011;3503;50.07605000;8.86719200;2024-02-16T02:16:40;6.77;;;3.40;;
6926;SDS011;3503;50.07605000;8.86719200;2024-02-16T02:31:43;7.90;;;3.60;;
6926;SDS011;3503;50.07605000;8.86719200;2024-02-16T02:46:46;4.10;;;2.80;;
6926;SDS011;3503;50.07605000;8.86719200;2024-02-16T03:01:49;10.37;;;3.70;;
6926;SDS011;3503;50.07605000;8.86719200;2024-02-16T03:16:52;5.70;;;3.60;;
6926;SDS011;3503;50.07605000;8.86719200;2024-02-16T03:31:55;12.93;;;3.20;;
6926;SDS011;3503;50.07605000;8.86719200;2024-02-16T03:46:58;6.90;;;3.40;;
6926;SDS011;3503;50.07605000;8.86719200;2024-02-16T04:02:00;6.20;;;2.80;;
6926;SDS011;3503;50.07605000;8.86719200;2024-02-16T04:17:03;5.30;;;2.57;;
6926;SDS011;3503;50.07605000;8.86719200;2024-02-16T04:32:06;13.47;;;3.20;;
6926;SDS011;3503;50.07605000;8.86719200;2024-02-16T04:47:09;10.07;;;2.90;;
6926;SDS011;3503;50.07605000;8.86719200;2024-02-16T05:02:12;7.00;;;3.30;;
6926;SDS011;3503;50.07605000;8.86719200;2024-02-16T05:17:15;7.50;;;2.67;;
6926;SDS011;3503;50.07605000;8.86719200;2024-02-16T05:32:18;6.00;;;3.13;;
6926;SDS011;3503;50.07605000;8.86719200;2024-02-16T05:47:21;5.53;;;3.20;;
6926;SDS011;3503;50.07605000;8.86719200;2024-02-16T06:02:24;8.77;;;3.83;;
6926;SDS011;3503;50.07605000;8.86719200;2024-02-16T06:17:27;6.93;;;3.77;;
6926;SDS011;3503;50.07605000;8.86719200;2024-02-16T06:32:30;7.23;;;4.07;;
6926;SDS011;3503;50.07605000;8.86719200;2024-02-16T06:47:33;12.57;;;4.40;;
6926;SDS011;3503;50.07605000;8.86719200;2024-02-16T07:02:36;11.57;;;5.40;;
6926;SDS011;3503;50.07605000;8.86719200;2024-02-16T07:17:39;12.23;;;6.13;;
6926;SDS011;3503;50.07605000;8.86719200;2024-02-16T07:32:42;9.87;;;3.97;;
6926;SDS011;3503;50.07605000;8.86719200;2024-02-16T07:47:47;9.87;;;4.17;;
6926;SDS011;3503;50.07605000;8.86719200;2024-02-16T08:02:50;5.27;;;3.10;;
6926;SDS011;3503;50.07605000;8.86719200;2024-02-16T08:17:53;5.77;;;4.20;;
6926;SDS011;3503;50.07605000;8.86719200;2024-02-16T08:32:55;8.00;;;3.30;;
6926;SDS011;3503;50.07605000;8.86719200;2024-02-16T08:47:59;13.63;;;4.27;;
6926;SDS011;3503;50.07605000;8.86719200;2024-02-16T09:03:05;8.43;;;4.40;;
6926;SDS011;3503;50.07605000;8.86719200;2024-02-16T09:18:10;8.00;;;3.47;;
6926;SDS011;3503;50.07605000;8.86719200;2024-02-16T09:33:12;8.67;;;4.53;;
6926;SDS011;3503;50.07605000;8.86719200;2024-02-16T09:48:16;10.37;;;5.00;;
6926;SDS011;3503;50.07605000;8.86719200;2024-02-16T10:03:25;8.80;;;4.60;;
6926;SDS011;3503;50.07605000;8.86719200;2024-02-16T10:18:29;9.03;;;4.23;;
6926;SDS011;3503;50.07605000;8.86719200;2024-02-16T10:33:31;8.27;;;5.33;;
6926;SDS011;3503;50.07605000;8.86719200;2024-02-16T10:48:35;7.83;;;4.00;;
6926;SDS011;3503;50.07605000;8.86719200;2024-02-16T11:03:38;12.03;;;4.10;;
6926;SDS011;3503;50.07605000;8.86719200;2024-02-16T11:18:42;6.70;;;3.03;;
6926;SDS011;3503;50.07605000;8.86719200;2024-02-16T11:33:47;5.20;;;3.00;;
6926;SDS011;3503;50.07605000;8.86719200;2024-02-16T11:48:50;9.50;;;3.10;;
6926;SDS011;3503;50.07605000;8.86719200;2024-02-16T12:03:53;13.30;;;3.30;;
6926;SDS011;3503;50.07605000;8.86719200;2024-02-16T12:19:03;9.37;;;2.93;;
6926;SDS011;3503;50.07605000;8.86719200;2024-02-16T12:34:06;11.07;;;2.47;;
6926;SDS011;3503;50.07605000;8.86719200;2024-02-16T12:49:09;5.00;;;2.53;;
6926;SDS011;3503;50.07605000;8.86719200;2024-02-16T13:04:12;6.30;;;2.67;;
6926;SDS011;3503;50.07605000;8.86719200;2024-02-16T13:19:22;6.00;;;2.70;;
6926;SDS011;3503;50.07605000;8.86719200;2024-02-16T13:34:25;8.80;;;2.77;;
6926;SDS011;3503;50.07605000;8.86719200;2024-02-16T13:49:28;5.67;;;2.67;;
6926;SDS011;3503;50.07605000;8.86719200;2024-02-16T14:04:31;10.07;;;3.00;;
6926;SDS011;3503;50.07605000;8.86719200;2024-02-16T14:19:34;5.53;;;2.87;;
6926;SDS011;3503;50.07605000;8.86719200;2024-02-16T14:34:38;6.47;;;3.30;;
6926;SDS011;3503;50.07605000;8.86719200;2024-02-16T14:49:43;12.37;;;2.73;;
6926;SDS011;3503;50.07605000;8.86719200;2024-02-16T15:04:46;9.73;;;3.00;;
6926;SDS011;3503;50.07605000;8.86719200;2024-02-16T15:19:49;5.90;;;2.63;;
6926;SDS011;3503;50.07605000;8.86719200;2024-02-16T15:34:52;12.50;;;3.00;;
6926;SDS011;3503;50.07605000;8.86719200;2024-02-16T15:49:55;6.70;;;2.70;;
6926;SDS011;3503;50.07605000;8.86719200;2024-02-16T16:04:58;6.27;;;3.10;;
6926;SDS011;3503;50.07605000;8.86719200;2024-02-16T16:20:01;5.80;;;3.40;;
6926;SDS011;3503;50.07605000;8.86719200;2024-02-16T16:35:05;8.10;;;4.20;;
6926;SDS011;3503;50.07605000;8.86719200;2024-02-16T16:50:10;9.00;;;4.30;;
6926;SDS011;3503;50.07605000;8.86719200;2024-02-16T17:05:13;4.70;;;2.53;;
6926;SDS011;3503;50.07605000;8.86719200;2024-02-16T17:20:16;5.63;;;3.83;;
6926;SDS011;3503;50.07605000;8.86719200;2024-02-16T17:35:19;6.90;;;2.47;;
6926;SDS011;3503;50.07605000;8.86719200;2024-02-16T17:50:23;7.77;;;3.10;;
6926;SDS011;3503;50.07605000;8.86719200;2024-02-16T18:05:27;11.23;;;3.20;;
6926;SDS011;3503;50.07605000;8.86719200;2024-02-16T18:20:30;6.43;;;3.63;;
6926;SDS011;3503;50.07605000;8.86719200;2024-02-16T18:35:33;6.27;;;4.30;;
6926;SDS011;3503;50.07605000;8.86719200;2024-02-16T18:50:35;12.63;;;5.20;;
6926;SDS011;3503;50.07605000;8.86719200;2024-02-16T19:05:38;9.33;;;4.97;;
6926;SDS011;3503;50.07605000;8.86719200;2024-02-16T19:20:41;7.20;;;5.10;;
6926;SDS011;3503;50.07605000;8.86719200;2024-02-16T19:35:44;8.73;;;5.70;;
6926;SDS011;3503;50.07605000;8.86719200;2024-02-16T19:50:48;11.07;;;6.20;;
6926;SDS011;3503;50.07605000;8.86719200;2024-02-16T20:05:51;15.00;;;7.50;;
6926;SDS011;3503;50.07605000;8.86719200;2024-02-16T20:20:54;18.33;;;7.50;;
6926;SDS011;3503;50.07605000;8.86719200;2024-02-16T20:35:57;12.63;;;7.93;;
6926;SDS011;3503;50.07605000;8.86719200;2024-02-16T20:51:00;17.93;;;8.13;;
6926;SDS011;3503;50.07605000;8.86719200;2024-02-16T21:06:03;10.97;;;7.27;;
6926;SDS011;3503;50.07605000;8.86719200;2024-02-16T21:21:06;10.43;;;7.93;;
6926;SDS011;3503;50.07605000;8.86719200;2024-02-16T21:36:09;12.20;;;7.60;;
6926;SDS011;3503;50.07605000;8.86719200;2024-02-16T21:51:13;13.20;;;8.23;;
6926;SDS011;3503;50.07605000;8.86719200;2024-02-16T22:06:19;15.20;;;9.00;;
6926;SDS011;3503;50.07605000;8.86719200;2024-02-16T22:21:22;9.27;;;7.47;;
6926;SDS011;3503;50.07605000;8.86719200;2024-02-16T22:36:26;14.13;;;5.67;;
6926;SDS011;3503;50.07605000;8.86719200;2024-02-16T22:51:30;7.50;;;5.47;;
6926;SDS011;3503;50.07605000;8.86719200;2024-02-16T23:06:33;8.87;;;5.37;;
6926;SDS011;3503;50.07605000;8.86719200;2024-02-16T23:21:36;7.57;;;4.87;;
6926;SDS011;3503;50.07605000;8.86719200;2024-02-16T23:36:39;6.93;;;5.97;;
6926;SDS011;3503;50.07605000;8.86719200;2024-02-16T23:51:42;10.43;;;8.07;;
